Time;durP1;ratioP1;P1;durP2;ratioP2;P2;SDS_P1;SDS_P2;PMS_P1;PMS_P2;Temp;Humidity;BMP_temperature;BMP_pressure;BME280_temperature;BME280_humidity;BME280_pressure;Samples;Min_cycle;Max_cycle;Signal;HPM_P1;HPM_P2
2022/04/14 00:00:20;;;;;;;6.10;4.43;;;10.40;93.90;;;;;;5075733;28;20189;-90
2022/04/14 00:02:45;;;;;;;5.37;4.97;;;10.40;93.90;;;;;;5075473;28;20175;-89
2022/04/14 00:05:11;;;;;;;5.27;4.90;;;10.50;94.00;;;;;;5075733;28;20171;-84
2022/04/14 00:07:37;;;;;;;4.80;4.40;;;10.50;94.10;;;;;;5075610;28;20212;-85
2022/04/14 00:10:04;;;;;;;6.73;5.10;;;10.50;94.20;;;;;;5075242;28;20687;-86
2022/04/14 00:12:30;;;;;;;6.17;5.03;;;10.50;94.30;;;;;;5075647;28;20672;-87
2022/04/14 00:14:56;;;;;;;7.40;5.13;;;10.50;94.40;;;;;;5075749;28;20257;-89
2022/04/14 00:17:22;;;;;;;5.73;5.17;;;10.50;94.40;;;;;;5075564;28;20179;-89
2022/04/14 00:19:47;;;;;;;5.60;5.10;;;10.50;94.50;;;;;;5075711;28;20179;-86
2022/04/14 00:22:13;;;;;;;5.83;5.23;;;10.50;94.30;;;;;;5057416;28;20178;-90
2022/04/14 00:24:39;;;;;;;5.53;4.93;;;10.50;94.30;;;;;;5057267;28;20213;-90
2022/04/14 00:27:05;;;;;;;6.53;5.07;;;10.50;94.20;;;;;;5075291;28;20581;-89
2022/04/14 00:29:30;;;;;;;5.70;5.20;;;10.50;94.20;;;;;;5075127;28;20175;-87
2022/04/14 00:31:56;;;;;;;7.60;5.13;;;10.50;94.20;;;;;;5075012;28;20171;-85
2022/04/14 00:34:22;;;;;;;5.57;5.07;;;10.50;94.30;;;;;;5057119;28;20179;-85
2022/04/14 00:36:47;;;;;;;5.73;4.90;;;10.50;94.40;;;;;;5056957;28;20185;-89
2022/04/14 00:39:13;;;;;;;6.60;5.53;;;10.50;94.80;;;;;;5074625;28;20204;-84
2022/04/14 00:41:39;;;;;;;5.37;4.83;;;10.40;94.60;;;;;;5074992;28;20312;-85
2022/04/14 00:44:05;;;;;;;6.30;5.30;;;10.40;94.50;;;;;;5079014;28;20511;-87
2022/04/14 00:46:32;;;;;;;6.67;4.97;;;10.40;94.20;;;;;;5080694;28;20526;-89
2022/04/14 00:48:58;;;;;;;7.50;4.80;;;10.40;94.20;;;;;;5059537;28;20226;-89
2022/04/14 00:51:24;;;;;;;4.80;4.50;;;10.40;94.10;;;;;;5076111;28;20584;-88
2022/04/14 00:53:50;;;;;;;6.23;5.03;;;10.40;94.00;;;;;;5075578;28;20205;-89
2022/04/14 00:56:15;;;;;;;5.63;5.03;;;10.40;94.20;;;;;;5075418;28;20704;-89
2022/04/14 00:58:41;;;;;;;5.47;4.97;;;10.40;94.20;;;;;;5075065;28;20201;-89
2022/04/14 01:01:08;;;;;;;6.10;5.50;;;10.30;94.30;;;;;;5076782;28;20231;-88
2022/04/14 01:03:35;;;;;;;6.10;5.30;;;10.30;94.50;;;;;;5076235;28;20174;-87
2022/04/14 01:06:03;;;;;;;7.73;5.50;;;10.20;94.70;;;;;;5075297;28;20209;-88
2022/04/14 01:08:32;;;;;;;5.43;5.03;;;10.10;94.70;;;;;;5077590;28;20544;-88
2022/04/14 01:10:58;;;;;;;8.37;5.27;;;10.20;94.80;;;;;;5074814;28;20237;-89
2022/04/14 01:13:24;;;;;;;5.67;5.10;;;10.20;94.80;;;;;;5056630;28;20190;-88
2022/04/14 01:15:59;;;;;;;6.57;5.67;;;10.20;94.80;;;;;;5056487;28;20271;-89
2022/04/14 01:18:26;;;;;;;6.03;5.50;;;10.20;95.00;;;;;;5075923;28;20290;-85
2022/04/14 01:20:52;;;;;;;9.17;5.63;;;10.10;95.00;;;;;;5073807;28;20254;-84
2022/04/14 01:23:24;;;;;;;5.57;5.07;;;10.00;95.50;;;;;;5074701;28;20195;-84
2022/04/14 01:25:50;;;;;;;5.93;4.67;;;10.00;95.30;;;;;;5074400;28;20542;-84
2022/04/14 01:28:17;;;;;;;5.20;4.70;;;10.10;95.10;;;;;;5074044;28;20174;-86
2022/04/14 01:30:43;;;;;;;5.33;4.90;;;9.90;95.40;;;;;;5056451;28;20175;-85
2022/04/14 01:33:09;;;;;;;5.67;5.27;;;10.10;95.00;;;;;;5084808;28;20167;-84
2022/04/14 01:35:35;;;;;;;5.40;5.00;;;10.00;95.00;;;;;;5089243;28;20197;-83
2022/04/14 01:38:00;;;;;;;5.93;5.17;;;10.00;95.00;;;;;;5084170;28;20214;-85
2022/04/14 01:40:28;;;;;;;7.17;4.90;;;10.00;95.10;;;;;;5082668;28;20696;-87
2022/04/14 01:42:54;;;;;;;5.30;4.90;;;9.90;95.40;;;;;;5088664;28;20198;-85
2022/04/14 01:45:20;;;;;;;5.70;5.20;;;9.80;95.40;;;;;;5082885;28;20163;-87
2022/04/14 01:47:46;;;;;;;7.97;4.90;;;9.70;95.50;;;;;;5062531;28;20182;-87
2022/04/14 01:50:13;;;;;;;5.57;5.10;;;9.70;95.60;;;;;;5075415;28;20638;-84
2022/04/14 01:52:41;;;;;;;6.47;5.23;;;9.60;95.60;;;;;;5079130;28;20160;-83
2022/04/14 01:55:08;;;;;;;6.30;4.90;;;9.60;95.60;;;;;;5076725;28;20523;-84
2022/04/14 01:57:34;;;;;;;5.13;4.73;;;9.50;95.60;;;;;;5073600;28;20194;-85
2022/04/14 02:00:03;;;;;;;5.90;4.57;;;9.50;95.70;;;;;;5072742;28;20584;-85
2022/04/14 02:02:28;;;;;;;7.07;4.63;;;9.50;95.50;;;;;;5073533;28;20173;-85
2022/04/14 02:04:54;;;;;;;4.83;4.50;;;9.50;95.50;;;;;;5073664;28;20187;-86
2022/04/14 02:07:20;;;;;;;5.80;4.90;;;9.40;95.50;;;;;;5074141;28;20163;-87
2022/04/14 02:09:46;;;;;;;5.13;4.70;;;9.20;95.60;;;;;;5075787;28;20225;-88
2022/04/14 02:12:12;;;;;;;5.27;4.67;;;9.20;95.70;;;;;;5055840;28;20229;-89
2022/04/14 02:14:39;;;;;;;5.10;4.70;;;9.10;95.80;;;;;;5073427;28;20665;-89
2022/04/14 02:17:05;;;;;;;6.47;4.60;;;9.20;95.80;;;;;;5055844;28;20182;-90
2022/04/14 02:19:31;;;;;;;5.17;4.77;;;9.20;95.70;;;;;;5073237;28;20213;-84
2022/04/14 02:21:58;;;;;;;4.80;4.47;;;9.20;95.80;;;;;;5073503;28;20630;-88
2022/04/14 02:24:25;;;;;;;5.73;5.20;;;9.20;95.80;;;;;;5073557;28;20633;-87
2022/04/14 02:26:51;;;;;;;5.37;4.90;;;9.20;95.90;;;;;;5072911;28;20171;-86
2022/04/14 02:29:17;;;;;;;5.43;4.80;;;9.20;95.90;;;;;;5073160;28;20166;-85
2022/04/14 02:31:43;;;;;;;5.40;4.90;;;9.20;95.90;;;;;;5072979;28;20256;-89
2022/04/14 02:34:09;;;;;;;5.23;4.70;;;9.20;96.00;;;;;;5073261;28;20183;-87
2022/04/14 02:36:34;;;;;;;5.17;4.70;;;9.10;96.30;;;;;;5055193;28;20184;-88
2022/04/14 02:39:00;;;;;;;6.30;4.97;;;9.10;96.00;;;;;;5073282;28;20590;-87
2022/04/14 02:41:26;;;;;;;4.70;4.40;;;9.10;96.00;;;;;;5073480;28;20173;-87
2022/04/14 02:43:52;;;;;;;5.07;4.63;;;9.10;96.10;;;;;;5073797;28;20173;-84
2022/04/14 02:46:17;;;;;;;5.27;4.77;;;9.10;96.10;;;;;;5074652;28;20178;-88
2022/04/14 02:48:43;;;;;;;5.13;4.63;;;9.00;96.20;;;;;;5058331;28;20193;-88
2022/04/14 02:51:09;;;;;;;5.33;4.83;;;9.00;96.30;;;;;;5075597;28;20515;-88
2022/04/14 02:53:34;;;;;;;5.13;4.70;;;9.00;96.20;;;;;;5073473;28;20260;-88
2022/04/14 02:56:00;;;;;;;6.47;4.80;;;9.00;96.10;;;;;;5073276;28;20173;-88
2022/04/14 02:58:26;;;;;;;9.00;4.70;;;8.90;96.20;;;;;;5072989;28;20208;-88
2022/04/14 03:00:52;;;;;;;5.20;4.80;;;9.00;96.20;;;;;;5072925;28;20187;-88
2022/04/14 03:03:19;;;;;;;5.10;4.70;;;8.90;96.10;;;;;;5072835;28;20174;-88
2022/04/14 03:05:45;;;;;;;5.03;4.60;;;8.90;96.10;;;;;;5055172;28;20177;-88
2022/04/14 03:08:14;;;;;;;5.23;4.73;;;8.90;96.20;;;;;;5072702;28;20223;-89
2022/04/14 03:10:39;;;;;;;6.57;5.07;;;8.80;96.30;;;;;;5074680;28;20236;-86
2022/04/14 03:13:05;;;;;;;5.77;4.80;;;8.90;96.50;;;;;;5076881;28;20196;-87
2022/04/14 03:15:31;;;;;;;7.30;4.97;;;8.90;96.50;;;;;;5058921;28;20260;-88
2022/04/14 03:17:56;;;;;;;5.17;4.70;;;8.90;96.60;;;;;;5058526;28;20213;-89
2022/04/14 03:20:22;;;;;;;5.30;4.90;;;8.80;96.60;;;;;;5076636;28;20169;-88
2022/04/14 03:22:48;;;;;;;6.73;4.93;;;8.90;96.80;;;;;;5079693;28;20182;-89
2022/04/14 03:25:14;;;;;;;5.27;4.77;;;8.90;96.80;;;;;;5078170;28;20236;-89
2022/04/14 03:27:40;;;;;;;6.23;4.93;;;8.80;96.90;;;;;;5076833;28;20170;-88
2022/04/14 03:30:08;;;;;;;6.27;5.67;;;8.70;97.00;;;;;;5076768;28;20174;-85
2022/04/14 03:32:44;;;;;;;7.13;4.83;;;8.70;97.00;;;;;;5058625;28;20519;-86
2022/04/14 03:35:11;;;;;;;6.50;5.10;;;8.70;97.00;;;;;;5076254;28;20183;-86
2022/04/14 03:37:37;;;;;;;5.23;4.73;;;8.60;97.10;;;;;;5058331;28;20177;-84
2022/04/14 03:40:05;;;;;;;5.43;4.93;;;8.60;97.10;;;;;;5076201;28;20176;-87
2022/04/14 03:42:30;;;;;;;5.67;5.03;;;8.50;97.10;;;;;;5076116;28;20178;-84
2022/04/14 03:44:57;;;;;;;5.33;4.93;;;8.60;97.10;;;;;;5079810;28;20172;-83
2022/04/14 03:47:23;;;;;;;5.90;4.63;;;8.50;97.20;;;;;;5080746;28;20161;-83
2022/04/14 03:49:49;;;;;;;5.07;4.70;;;8.60;97.10;;;;;;5079912;28;20203;-84
2022/04/14 03:52:15;;;;;;;5.30;4.90;;;8.40;97.00;;;;;;5078888;28;20165;-85
2022/04/14 03:54:41;;;;;;;5.07;4.60;;;8.40;97.10;;;;;;5058120;28;20185;-85
2022/04/14 03:57:07;;;;;;;5.47;4.73;;;8.40;97.10;;;;;;5076060;28;20660;-83
2022/04/14 03:59:32;;;;;;;5.07;4.77;;;8.40;97.10;;;;;;5057868;28;20213;-88
2022/04/14 04:01:58;;;;;;;6.80;4.90;;;8.50;97.00;;;;;;5076684;28;20224;-85
2022/04/14 04:04:24;;;;;;;5.67;5.17;;;8.40;97.10;;;;;;5058025;28;20275;-87
2022/04/14 04:06:50;;;;;;;7.10;4.97;;;8.30;97.20;;;;;;5075349;28;20177;-86
2022/04/14 04:09:16;;;;;;;5.47;4.53;;;8.30;97.20;;;;;;5075327;28;20658;-88
2022/04/14 04:11:41;;;;;;;6.90;5.50;;;8.20;97.40;;;;;;5075831;28;20168;-89
2022/04/14 04:14:10;;;;;;;6.67;5.37;;;8.20;97.40;;;;;;5057521;28;20186;-83
2022/04/14 04:16:35;;;;;;;5.47;4.63;;;8.20;97.40;;;;;;5075209;28;20166;-84
2022/04/14 04:19:01;;;;;;;5.80;5.20;;;8.30;97.40;;;;;;5075032;28;20547;-86
2022/04/14 04:21:29;;;;;;;9.00;5.50;;;8.20;97.30;;;;;;5073894;28;20173;-85
2022/04/14 04:23:55;;;;;;;14.90;5.50;;;8.30;97.30;;;;;;5057129;28;20235;-85
2022/04/14 04:26:20;;;;;;;5.40;4.90;;;8.20;97.40;;;;;;5074731;28;20175;-86
2022/04/14 04:28:46;;;;;;;5.37;4.97;;;8.30;97.30;;;;;;5074890;28;20205;-85
2022/04/14 04:31:12;;;;;;;5.87;5.33;;;8.40;97.30;;;;;;5075512;28;20213;-85
2022/04/14 04:33:38;;;;;;;5.77;5.23;;;8.40;97.40;;;;;;5077408;28;20325;-87
2022/04/14 04:36:04;;;;;;;5.70;5.30;;;8.40;97.20;;;;;;5075167;28;20530;-86
2022/04/14 04:38:30;;;;;;;5.53;5.03;;;8.30;97.20;;;;;;5074668;28;20696;-84
2022/04/14 04:40:58;;;;;;;5.37;4.97;;;8.20;97.40;;;;;;5074743;28;20221;-87
2022/04/14 04:43:25;;;;;;;5.90;5.30;;;8.30;97.40;;;;;;5074765;28;20507;-85
2022/04/14 04:45:50;;;;;;;10.07;6.60;;;8.30;97.30;;;;;;5074689;28;20169;-88
2022/04/14 04:48:16;;;;;;;6.07;5.40;;;8.30;97.50;;;;;;5073906;28;20204;-87
2022/04/14 04:50:42;;;;;;;5.97;4.70;;;8.30;97.50;;;;;;5056529;28;20175;-86
2022/04/14 04:53:08;;;;;;;6.43;5.80;;;8.20;97.40;;;;;;5074594;28;20310;-85
2022/04/14 04:55:33;;;;;;;7.63;6.30;;;8.20;97.30;;;;;;5078481;28;20630;-88
2022/04/14 04:57:59;;;;;;;7.13;5.60;;;8.20;97.30;;;;;;5076182;28;20607;-87
2022/04/14 05:00:25;;;;;;;5.97;5.47;;;8.20;97.50;;;;;;5074951;28;20223;-87
2022/04/14 05:02:51;;;;;;;7.63;5.40;;;8.10;97.70;;;;;;5074702;28;20175;-86
2022/04/14 05:05:18;;;;;;;6.37;5.73;;;8.20;97.80;;;;;;5074524;28;20652;-86
2022/04/14 05:07:47;;;;;;;6.53;5.60;;;8.20;97.70;;;;;;5074066;28;20176;-85
2022/04/14 05:10:12;;;;;;;7.83;5.33;;;8.20;97.80;;;;;;5056250;28;20325;-85
2022/04/14 05:12:39;;;;;;;8.13;5.50;;;8.20;97.70;;;;;;5074373;28;20180;-87
2022/04/14 05:15:05;;;;;;;6.23;5.73;;;8.30;97.70;;;;;;5074102;28;20232;-84
2022/04/14 05:17:31;;;;;;;7.20;5.70;;;8.30;97.80;;;;;;5074493;28;20176;-84
2022/04/14 05:19:57;;;;;;;9.17;6.10;;;8.30;97.80;;;;;;5056142;28;20185;-85
2022/04/14 05:22:22;;;;;;;7.17;5.50;;;8.40;97.70;;;;;;5056018;28;20181;-84
2022/04/14 05:24:48;;;;;;;8.87;5.80;;;8.60;97.60;;;;;;5074228;28;20185;-85
2022/04/14 05:27:14;;;;;;;11.20;5.50;;;8.60;97.70;;;;;;5055652;28;20208;-86
2022/04/14 05:29:40;;;;;;;8.80;5.47;;;8.60;97.60;;;;;;5072960;28;20246;-85
2022/04/14 05:32:07;;;;;;;8.87;5.87;;;8.70;97.50;;;;;;5055702;28;20178;-85
2022/04/14 05:34:33;;;;;;;6.80;6.10;;;8.80;97.70;;;;;;5073686;28;20253;-87
2022/04/14 05:36:59;;;;;;;11.27;6.27;;;8.90;97.60;;;;;;5073390;28;20204;-87
2022/04/14 05:39:24;;;;;;;7.20;5.93;;;9.00;97.50;;;;;;5073636;28;20669;-86
2022/04/14 05:41:50;;;;;;;6.47;5.87;;;9.10;97.40;;;;;;5056364;28;20169;-85
2022/04/14 05:44:17;;;;;;;8.90;6.33;;;9.20;97.30;;;;;;5055688;28;20238;-84
2022/04/14 05:46:43;;;;;;;9.23;6.27;;;9.30;97.20;;;;;;5074077;28;20500;-84
2022/04/14 05:49:08;;;;;;;13.13;6.57;;;9.40;97.30;;;;;;5074198;28;20231;-86
2022/04/14 05:51:34;;;;;;;8.40;6.00;;;9.40;97.10;;;;;;5074001;28;20500;-85
2022/04/14 05:54:00;;;;;;;10.07;6.23;;;9.50;97.40;;;;;;5073959;28;20182;-84
2022/04/14 05:56:26;;;;;;;9.13;6.20;;;9.60;97.30;;;;;;5073520;28;20176;-87
2022/04/14 05:58:53;;;;;;;10.37;6.13;;;9.70;97.20;;;;;;5056236;28;20215;-85
2022/04/14 06:01:19;;;;;;;7.60;5.97;;;9.80;97.20;;;;;;5056316;28;20182;-87
2022/04/14 06:03:45;;;;;;;7.83;5.87;;;9.80;97.10;;;;;;5056644;28;20182;-84
2022/04/14 06:06:13;;;;;;;8.40;6.27;;;9.90;96.90;;;;;;5074468;28;20210;-84
2022/04/14 06:08:39;;;;;;;12.07;6.03;;;10.00;96.10;;;;;;5075927;28;20185;-84
2022/04/14 06:11:06;;;;;;;6.07;5.43;;;10.20;96.10;;;;;;5076603;28;20222;-85
2022/04/14 06:13:35;;;;;;;6.43;5.93;;;10.20;95.80;;;;;;5077675;28;20175;-87
2022/04/14 06:16:01;;;;;;;6.30;5.70;;;10.30;95.70;;;;;;5081737;28;20178;-87
2022/04/14 06:18:29;;;;;;;12.07;6.27;;;10.40;95.50;;;;;;5063402;28;20213;-84
2022/04/14 06:20:56;;;;;;;7.77;5.63;;;10.50;95.40;;;;;;5082482;28;20178;-85
2022/04/14 06:23:22;;;;;;;6.57;5.80;;;10.60;95.30;;;;;;5076753;28;20179;-87
2022/04/14 06:25:50;;;;;;;12.20;6.43;;;10.70;95.30;;;;;;5075166;28;20593;-85
2022/04/14 06:28:19;;;;;;;7.77;6.30;;;10.80;95.20;;;;;;5074031;28;20181;-87
2022/04/14 06:30:47;;;;;;;8.20;6.30;;;11.00;95.20;;;;;;5073257;28;20168;-85
2022/04/14 06:33:15;;;;;;;16.33;6.40;;;11.10;94.90;;;;;;5073588;28;20645;-89
2022/04/14 06:35:44;;;;;;;7.93;6.60;;;11.10;95.00;;;;;;5073398;28;20634;-86
2022/04/14 06:38:10;;;;;;;9.77;5.87;;;11.20;95.00;;;;;;5055514;28;20207;-85
2022/04/14 06:40:36;;;;;;;8.83;6.43;;;11.40;94.60;;;;;;5073096;28;20173;-86
2022/04/14 06:43:05;;;;;;;6.57;5.83;;;11.40;94.50;;;;;;5073973;28;20201;-87
2022/04/14 06:45:31;;;;;;;8.47;6.30;;;11.50;94.30;;;;;;5076831;28;20218;-89
2022/04/14 06:47:58;;;;;;;9.60;5.70;;;11.50;94.20;;;;;;5077706;28;20190;-86
2022/04/14 06:50:26;;;;;;;8.63;6.10;;;11.70;93.90;;;;;;5077908;28;20183;-87
2022/04/14 06:52:53;;;;;;;8.07;6.27;;;11.80;93.90;;;;;;5077430;28;20262;-88
2022/04/14 06:55:23;;;;;;;7.77;6.13;;;11.90;93.50;;;;;;5077587;28;20228;-88
2022/04/14 06:57:51;;;;;;;8.73;6.00;;;11.90;93.60;;;;;;5060126;28;20207;-85
2022/04/14 07:00:19;;;;;;;7.03;5.53;;;12.00;93.30;;;;;;5059640;28;20181;-86
2022/04/14 07:02:56;;;;;;;10.47;6.10;;;12.00;93.10;;;;;;5077489;28;20648;-85
2022/04/14 07:05:22;;;;;;;8.00;5.93;;;12.10;93.00;;;;;;5078966;28;20198;-90
2022/04/14 07:07:50;;;;;;;10.07;6.47;;;12.20;93.00;;;;;;5078619;28;20621;-89
2022/04/14 07:10:16;;;;;;;8.13;6.00;;;12.30;92.70;;;;;;5077953;28;20240;-87
2022/04/14 07:12:44;;;;;;;8.83;6.10;;;12.40;92.30;;;;;;5060231;28;20578;-86
2022/04/14 07:15:11;;;;;;;7.30;6.07;;;12.40;92.30;;;;;;5077378;28;20180;-88
2022/04/14 07:17:37;;;;;;;6.20;5.60;;;12.50;92.40;;;;;;5059850;28;20185;-88
2022/04/14 07:20:05;;;;;;;6.50;5.40;;;12.60;92.10;;;;;;5060099;28;20182;-88
2022/04/14 07:22:44;;;;;;;7.80;5.70;;;12.70;92.10;;;;;;5077734;28;20653;-89
2022/04/14 07:25:11;;;;;;;10.63;5.60;;;12.80;91.60;;;;;;5060533;28;20187;-89
2022/04/14 07:27:38;;;;;;;6.97;5.77;;;12.90;91.10;;;;;;5077546;28;20167;-87
2022/04/14 07:30:05;;;;;;;7.63;5.60;;;13.00;91.10;;;;;;5076107;28;20198;-87
2022/04/14 07:32:39;;;;;;;8.13;6.10;;;13.10;91.10;;;;;;5076676;28;20163;-88
2022/04/14 07:35:06;;;;;;;6.70;6.10;;;13.20;91.10;;;;;;5058886;28;20171;-91
2022/04/14 07:37:33;;;;;;;6.67;5.70;;;13.30;91.10;;;;;;5076344;28;20182;-89
2022/04/14 07:39:59;;;;;;;6.63;5.80;;;13.40;90.60;;;;;;5077049;28;20240;-90
2022/04/14 07:42:37;;;;;;;6.77;5.83;;;13.40;90.20;;;;;;5076474;28;20164;-90
2022/04/14 07:45:05;;;;;;;6.40;5.77;;;13.50;90.20;;;;;;5058983;28;20173;-86
2022/04/14 07:47:31;;;;;;;5.87;5.23;;;13.60;90.10;;;;;;5061334;28;20175;-90
2022/04/14 07:49:56;;;;;;;6.93;5.23;;;13.60;90.00;;;;;;5062148;28;20175;-91
2022/04/14 07:52:22;;;;;;;9.30;5.30;;;13.70;88.70;;;;;;5078927;28;20167;-86
2022/04/14 07:54:48;;;;;;;5.63;4.97;;;13.80;88.60;;;;;;5078056;28;20694;-87
2022/04/14 07:57:14;;;;;;;8.53;5.03;;;13.80;89.00;;;;;;5059575;28;20203;-88
2022/04/14 07:59:40;;;;;;;6.57;5.23;;;13.90;89.60;;;;;;5077176;28;20199;-89
2022/04/14 08:02:05;;;;;;;8.57;5.37;;;14.00;88.90;;;;;;5080949;28;20179;-89
2022/04/14 08:04:31;;;;;;;8.00;5.37;;;14.20;88.90;;;;;;5080439;28;20175;-89
2022/04/14 08:06:57;;;;;;;8.20;6.20;;;14.30;88.90;;;;;;5061466;28;20205;-84
2022/04/14 08:09:24;;;;;;;6.90;5.47;;;14.30;88.40;;;;;;5060909;28;20215;-87
2022/04/14 08:11:50;;;;;;;9.47;7.03;;;14.30;89.40;;;;;;5059302;28;20270;-87
2022/04/14 08:14:16;;;;;;;6.37;5.73;;;14.40;89.40;;;;;;5078154;28;20175;-87
2022/04/14 08:16:42;;;;;;;6.87;5.20;;;14.40;88.90;;;;;;5076083;28;20200;-87
2022/04/14 08:19:08;;;;;;;6.20;5.70;;;14.50;88.50;;;;;;5057712;28;20264;-86
2022/04/14 08:21:34;;;;;;;12.47;6.13;;;14.60;88.20;;;;;;5060426;28;20171;-85
2022/04/14 08:24:01;;;;;;;6.47;5.97;;;14.70;88.70;;;;;;5075538;28;20182;-85
2022/04/14 08:26:27;;;;;;;7.57;5.40;;;14.80;88.90;;;;;;5076354;28;20178;-85
2022/04/14 08:28:55;;;;;;;12.00;6.27;;;14.80;88.10;;;;;;5076157;28;20225;-89
2022/04/14 08:31:21;;;;;;;10.97;6.20;;;14.90;88.00;;;;;;5076613;28;20695;-87
2022/04/14 08:33:49;;;;;;;9.63;6.53;;;15.00;88.20;;;;;;5076423;28;20204;-86
2022/04/14 08:36:15;;;;;;;7.10;6.50;;;15.10;88.20;;;;;;5075907;28;20171;-88
2022/04/14 08:38:46;;;;;;;6.80;6.00;;;15.10;88.30;;;;;;5075832;28;20202;-88
2022/04/14 08:41:17;;;;;;;8.67;6.10;;;15.30;88.10;;;;;;5075753;28;20619;-89
2022/04/14 08:44:05;;;;;;;9.73;6.23;;;15.30;87.40;;;;;;5076105;28;20165;-89
2022/04/14 08:46:31;;;;;;;6.60;5.60;;;15.40;87.70;;;;;;5057852;28;20171;-86
2022/04/14 08:48:59;;;;;;;9.67;6.03;;;15.50;88.10;;;;;;5074808;28;20175;-87
2022/04/14 08:51:33;;;;;;;9.47;5.97;;;15.50;88.60;;;;;;5057302;28;20175;-87
2022/04/14 08:53:59;;;;;;;8.03;5.60;;;15.60;88.30;;;;;;5075285;28;20163;-86
2022/04/14 08:56:25;;;;;;;7.87;6.00;;;15.70;86.10;;;;;;5057146;28;20179;-89
2022/04/14 08:58:57;;;;;;;8.23;5.97;;;15.60;86.40;;;;;;5075889;28;20604;-90
2022/04/14 09:01:26;;;;;;;7.63;6.53;;;15.70;86.80;;;;;;5074646;28;20247;-87
2022/04/14 09:03:58;;;;;;;7.80;6.03;;;15.90;85.50;;;;;;5075271;28;20171;-89
2022/04/14 09:06:27;;;;;;;8.63;6.13;;;15.90;85.60;;;;;;5075434;28;20177;-90
2022/04/14 09:08:55;;;;;;;12.13;5.93;;;15.90;86.10;;;;;;5074872;28;20258;-89
2022/04/14 09:11:21;;;;;;;10.37;6.20;;;15.90;85.80;;;;;;5074924;28;20297;-86
2022/04/14 09:13:48;;;;;;;7.43;6.07;;;15.90;85.60;;;;;;5074454;28;20179;-87
2022/04/14 09:16:13;;;;;;;9.40;5.50;;;16.10;84.50;;;;;;5074632;28;20235;-87
2022/04/14 09:18:40;;;;;;;6.50;5.90;;;16.20;84.30;;;;;;5077535;28;20211;-87
2022/04/14 09:21:06;;;;;;;7.00;5.80;;;16.20;84.50;;;;;;5081401;28;20168;-87
2022/04/14 09:23:32;;;;;;;7.30;5.87;;;16.20;84.60;;;;;;5086746;28;20170;-86
2022/04/14 09:26:06;;;;;;;6.47;5.83;;;16.20;84.70;;;;;;5083473;28;20183;-86
2022/04/14 09:28:32;;;;;;;7.00;5.80;;;16.30;86.20;;;;;;5062644;28;20210;-87
2022/04/14 09:31:02;;;;;;;6.17;5.67;;;16.40;85.00;;;;;;5080743;28;20180;-87
2022/04/14 09:33:29;;;;;;;7.00;5.73;;;16.50;84.80;;;;;;5075748;28;20178;-86
2022/04/14 09:36:09;;;;;;;6.67;5.97;;;16.50;85.80;;;;;;5057279;28;20179;-86
2022/04/14 09:38:58;;;;;;;7.77;5.87;;;16.50;86.30;;;;;;5056222;28;20203;-84
2022/04/14 09:41:31;;;;;;;6.10;5.60;;;16.60;85.40;;;;;;5073584;28;20588;-85
2022/04/14 09:43:58;;;;;;;12.10;5.93;;;16.70;86.10;;;;;;5056643;28;20244;-84
2022/04/14 09:46:24;;;;;;;7.73;6.00;;;16.80;85.80;;;;;;5056405;28;20204;-86
2022/04/14 09:49:07;;;;;;;6.10;5.60;;;16.80;85.10;;;;;;5056472;28;20273;-84
2022/04/14 09:51:50;;;;;;;6.43;5.70;;;16.70;85.40;;;;;;5075213;28;20159;-85
2022/04/14 09:54:18;;;;;;;11.50;5.90;;;16.70;85.50;;;;;;5074268;28;20483;-86
2022/04/14 09:56:52;;;;;;;7.33;6.37;;;16.80;85.60;;;;;;5055821;28;20175;-86
2022/04/14 09:59:20;;;;;;;11.17;5.90;;;16.80;85.00;;;;;;5073615;28;20200;-86
2022/04/14 10:01:47;;;;;;;11.93;5.87;;;16.80;85.00;;;;;;5073731;28;20179;-88
2022/04/14 10:04:31;;;;;;;8.00;5.53;;;16.90;85.70;;;;;;5075720;28;20164;-88
2022/04/14 10:07:08;;;;;;;7.20;6.00;;;17.10;85.90;;;;;;5075417;28;20654;-90
2022/04/14 10:09:35;;;;;;;7.87;5.93;;;17.20;84.80;;;;;;5074341;28;20218;-89
2022/04/14 10:12:24;;;;;;;7.63;6.27;;;17.10;85.00;;;;;;5073859;28;20167;-88
2022/04/14 10:14:56;;;;;;;6.20;5.60;;;17.10;86.00;;;;;;5074246;28;20168;-86
2022/04/14 10:17:26;;;;;;;7.37;5.70;;;17.20;86.90;;;;;;5057339;28;20631;-88
2022/04/14 10:19:53;;;;;;;10.73;6.23;;;17.30;85.40;;;;;;5075525;28;20195;-87
2022/04/14 10:22:19;;;;;;;7.10;6.40;;;17.40;84.40;;;;;;5074794;28;20190;-89
2022/04/14 10:24:46;;;;;;;8.40;6.87;;;17.40;84.80;;;;;;5073353;28;20174;-87
2022/04/14 10:27:13;;;;;;;7.20;6.50;;;17.50;84.60;;;;;;5073765;28;20186;-88
2022/04/14 10:29:40;;;;;;;7.40;6.40;;;17.40;84.90;;;;;;5073539;28;20646;-85
2022/04/14 10:32:07;;;;;;;7.07;6.33;;;17.40;86.00;;;;;;5073786;28;20176;-87
2022/04/14 10:34:34;;;;;;;6.93;6.23;;;17.40;85.30;;;;;;5056332;28;20176;-86
2022/04/14 10:37:02;;;;;;;7.00;6.17;;;17.50;84.30;;;;;;5056452;28;20186;-86
2022/04/14 10:39:33;;;;;;;6.80;5.87;;;17.50;84.60;;;;;;5055399;28;20235;-85
2022/04/14 10:42:01;;;;;;;6.43;5.83;;;17.50;86.00;;;;;;5073364;28;20251;-86
2022/04/14 10:44:47;;;;;;;8.67;5.77;;;17.60;85.10;;;;;;5055326;28;20249;-88
2022/04/14 10:47:55;;;;;;;6.33;5.73;;;17.80;85.30;;;;;;5072904;28;20239;-86
2022/04/14 10:50:29;;;;;;;6.03;5.50;;;17.90;85.30;;;;;;5061657;28;20188;-86
2022/04/14 10:53:12;;;;;;;8.03;5.27;;;18.00;84.40;;;;;;5072958;28;20619;-85
2022/04/14 10:55:41;;;;;;;8.13;5.50;;;18.10;84.20;;;;;;5072841;28;20162;-86
2022/04/14 10:58:27;;;;;;;6.47;5.87;;;18.10;83.70;;;;;;5072800;28;20665;-86
2022/04/14 11:00:55;;;;;;;6.20;5.70;;;18.20;82.50;;;;;;5054636;28;20623;-86
2022/04/14 11:03:48;;;;;;;6.40;5.67;;;18.30;81.70;;;;;;5055072;28;20175;-87
2022/04/14 11:06:42;;;;;;;5.87;5.37;;;18.30;81.70;;;;;;5072893;28;20159;-87
2022/04/14 11:09:42;;;;;;;7.07;6.00;;;18.30;82.70;;;;;;5073191;28;20261;-86
2022/04/14 11:12:12;;;;;;;8.60;5.73;;;18.30;82.10;;;;;;5057182;28;20190;-86
2022/04/14 11:14:44;;;;;;;5.90;5.23;;;18.40;81.90;;;;;;5084244;28;20223;-87
2022/04/14 11:20:16;;;;;;;10.40;5.60;;;18.50;81.80;;;;;;5088981;28;20271;-87
2022/04/14 11:23:01;;;;;;;6.03;5.30;;;18.50;82.20;;;;;;5088816;28;20573;-86
2022/04/14 11:25:49;;;;;;;7.77;6.37;;;18.60;82.20;;;;;;5091610;28;20196;-86
2022/04/14 11:28:22;;;;;;;6.60;5.67;;;18.70;81.60;;;;;;5094101;28;20159;-85
2022/04/14 11:30:49;;;;;;;9.03;5.90;;;18.70;81.90;;;;;;5075958;28;20179;-85
2022/04/14 11:33:36;;;;;;;7.40;5.87;;;18.70;81.20;;;;;;5091844;28;20185;-87
2022/04/14 11:36:13;;;;;;;6.73;6.10;;;18.70;80.00;;;;;;5078468;28;20175;-86
2022/04/14 11:39:04;;;;;;;8.90;5.77;;;18.80;81.10;;;;;;5081642;28;20213;-86
2022/04/14 11:41:55;;;;;;;7.97;5.70;;;18.90;81.30;;;;;;5060211;28;20185;-86
2022/04/14 11:44:32;;;;;;;6.63;5.90;;;18.90;81.10;;;;;;5078489;28;20177;-88
2022/04/14 11:47:01;;;;;;;8.27;6.00;;;19.00;81.60;;;;;;5060612;28;20178;-87
2022/04/14 11:49:29;;;;;;;5.90;5.40;;;19.00;80.10;;;;;;5077401;28;20167;-87
2022/04/14 11:51:57;;;;;;;8.97;5.63;;;19.10;80.40;;;;;;5077486;28;20167;-86
2022/04/14 11:54:29;;;;;;;9.13;5.60;;;19.00;79.90;;;;;;5059709;28;20235;-86
2022/04/14 11:56:57;;;;;;;6.17;5.67;;;19.10;80.40;;;;;;5079033;28;20649;-87
2022/04/14 11:59:35;;;;;;;5.40;4.90;;;19.20;80.30;;;;;;5061613;28;20211;-88
2022/04/14 12:02:03;;;;;;;6.13;5.00;;;19.20;81.50;;;;;;5060170;28;20173;-89
2022/04/14 12:04:44;;;;;;;5.50;5.10;;;19.20;81.50;;;;;;5077971;28;20228;-87
2022/04/14 12:07:10;;;;;;;5.90;5.43;;;19.30;81.80;;;;;;5077475;28;20182;-89
2022/04/14 12:09:40;;;;;;;5.80;5.30;;;19.30;81.90;;;;;;5077035;28;20219;-88
2022/04/14 12:12:15;;;;;;;6.17;5.67;;;19.40;80.30;;;;;;5077378;28;20159;-87
2022/04/14 12:14:52;;;;;;;6.70;5.43;;;19.50;79.30;;;;;;5059921;28;20208;-87
2022/04/14 12:17:23;;;;;;;5.77;5.37;;;19.50;79.60;;;;;;5078001;28;20642;-86
2022/04/14 12:19:53;;;;;;;6.27;5.77;;;19.50;80.50;;;;;;5059551;28;20214;-87
2022/04/14 12:22:20;;;;;;;6.07;5.53;;;19.60;78.90;;;;;;5077148;28;20171;-86
2022/04/14 12:24:57;;;;;;;6.87;5.33;;;19.70;78.90;;;;;;5059626;28;20195;-87
2022/04/14 12:27:27;;;;;;;6.27;5.67;;;19.60;79.80;;;;;;5061320;28;20163;-87
2022/04/14 12:29:57;;;;;;;6.07;5.60;;;19.60;79.90;;;;;;5059142;28;20249;-87
2022/04/14 12:32:27;;;;;;;12.17;6.60;;;19.60;79.40;;;;;;5059419;28;20224;-88
2022/04/14 12:34:54;;;;;;;6.30;5.87;;;19.60;79.20;;;;;;5077638;28;20220;-88
2022/04/14 12:37:20;;;;;;;7.13;6.10;;;19.60;79.10;;;;;;5078256;28;20332;-86
2022/04/14 12:39:56;;;;;;;9.43;6.20;;;19.60;79.10;;;;;;5060058;28;20316;-87
2022/04/14 12:42:28;;;;;;;8.17;5.70;;;19.70;78.90;;;;;;5077262;28;20230;-85
2022/04/14 12:44:54;;;;;;;5.87;5.30;;;19.80;79.10;;;;;;5059694;28;20179;-87
2022/04/14 12:47:29;;;;;;;5.47;5.03;;;19.70;78.20;;;;;;5076945;28;20221;-85
2022/04/14 12:49:57;;;;;;;6.03;5.43;;;19.80;78.10;;;;;;5075969;28;20159;-85
2022/04/14 12:52:23;;;;;;;6.77;5.40;;;19.80;77.70;;;;;;5076262;28;20250;-87
2022/04/14 12:54:50;;;;;;;7.73;5.50;;;19.80;77.70;;;;;;5076693;28;20175;-85
2022/04/14 12:57:24;;;;;;;5.90;5.30;;;19.90;77.90;;;;;;5077450;28;20229;-85
2022/04/14 13:00:11;;;;;;;5.80;5.30;;;19.90;77.00;;;;;;5075625;28;20297;-85